Terminal Aerodrome Forecast
Issued by NWS Cleveland, OH

Home | Current Version | Previous Version | Graphics & Text | Print | Product List | Glossary On
Versions: 1 2 3 4 5 6 7 8 9 10 11 12
000
FTUS41 KCLE 292341
TAFMFD
TAF
KMFD 292341Z 3000/3024 24008KT P6SM VCTS SCT040CB BKN150
      TEMPO 3000/3001 5SM -TSRA BKN050CB
     FM301000 27010KT P6SM SKC
     FM301600 27010G18KT P6SM SKC
     FM302300 27008KT P6SM SKC=

USA.gov is the U.S. government's official web portal to all federal, state and local government web resources and services.